Time;durP1;ratioP1;P1;durP2;ratioP2;P2;SDS_P1;SDS_P2;PMS_P1;PMS_P2;Temp;Humidity;BMP_temperature;BMP_pressure;BME280_temperature;BME280_humidity;BME280_pressure;Samples;Min_cycle;Max_cycle;Signal;HPM_P1;HPM_P2
2022/03/25 00:01:18;;;;;;;;;;;2.40;99.90;;;;;;5092693;28;19986;-70
2022/03/25 00:03:45;;;;;;;;;;;2.30;99.90;;;;;;5078865;28;19923;-70
2022/03/25 00:06:12;;;;;;;;;;;2.30;99.90;;;;;;5109744;28;19924;-70
2022/03/25 00:08:42;;;;;;;;;;;2.30;99.90;;;;;;5110440;28;19923;-70
2022/03/25 00:11:12;;;;;;;;;;;2.20;99.90;;;;;;5101059;28;20387;-70
2022/03/25 00:13:39;;;;;;;;;;;2.20;99.90;;;;;;5110678;28;19924;-70
2022/03/25 00:16:06;;;;;;;;;;;2.20;99.90;;;;;;5109135;28;20332;-70
2022/03/25 00:18:33;;;;;;;;;;;2.00;99.90;;;;;;5092241;28;19932;-71
2022/03/25 00:21:00;;;;;;;;;;;2.00;99.90;;;;;;5105393;28;19924;-70
2022/03/25 00:23:27;;;;;;;;;;;1.90;99.90;;;;;;5093155;28;19924;-70
2022/03/25 00:25:55;;;;;;;;;;;1.90;99.90;;;;;;5099381;28;19928;-70
2022/03/25 00:28:22;;;;;;;;;;;1.80;99.90;;;;;;5091675;28;19959;-70
2022/03/25 00:30:52;;;;;;;;;;;1.80;99.90;;;;;;5110627;28;19923;-70
2022/03/25 00:33:19;;;;;;;;;;;1.80;99.90;;;;;;5094632;28;19963;-70
2022/03/25 00:35:46;;;;;;;;;;;1.90;99.90;;;;;;5102637;28;19924;-71
2022/03/25 00:38:12;;;;;;;;;;;2.00;99.90;;;;;;5101588;28;19964;-70
2022/03/25 00:40:39;;;;;;;;;;;2.00;99.90;;;;;;5091645;28;19969;-70
2022/03/25 00:43:09;;;;;;;;;;;2.10;99.90;;;;;;5040010;28;1886396;-70
2022/03/25 00:45:36;;;;;;;;;;;2.10;99.90;;;;;;5108382;28;19946;-70
2022/03/25 00:48:03;;;;;;;;;;;2.10;99.90;;;;;;5092764;28;19924;-70
2022/03/25 00:50:31;;;;;;;;;;;2.10;99.90;;;;;;5100101;28;20424;-70
2022/03/25 00:52:57;;;;;;;;;;;2.00;99.90;;;;;;5103559;28;19924;-70
2022/03/25 00:55:24;;;;;;;;;;;1.90;99.90;;;;;;5095876;28;19977;-70
2022/03/25 00:57:51;;;;;;;;;;;1.80;99.90;;;;;;5092639;28;19992;-70
2022/03/25 01:00:18;;;;;;;;;;;1.70;99.90;;;;;;5102857;28;19989;-70
2022/03/25 01:02:47;;;;;;;;;;;1.60;99.90;;;;;;5092025;28;19923;-70
2022/03/25 01:05:14;;;;;;;;;;;1.50;99.90;;;;;;5099533;28;19924;-70
2022/03/25 01:07:41;;;;;;;;;;;1.50;99.90;;;;;;5099025;28;19947;-70
2022/03/25 01:10:08;;;;;;;;;;;1.50;99.90;;;;;;5106012;28;19967;-70
2022/03/25 01:12:34;;;;;;;;;;;1.40;99.90;;;;;;5103166;28;19966;-70
2022/03/25 01:15:01;;;;;;;;;;;1.30;99.90;;;;;;5109281;28;19924;-70
2022/03/25 01:17:28;;;;;;;;;;;1.30;99.90;;;;;;5092544;28;19924;-70
2022/03/25 01:19:55;;;;;;;;;;;1.30;99.90;;;;;;5099074;28;19975;-70
2022/03/25 01:22:22;;;;;;;;;;;1.20;99.90;;;;;;5099386;28;19928;-69
2022/03/25 01:24:49;;;;;;;;;;;1.20;99.90;;;;;;5097966;28;19923;-69
2022/03/25 01:27:17;;;;;;;;;;;1.10;99.90;;;;;;5109484;28;19924;-70
2022/03/25 01:29:46;;;;;;;;;;;1.10;99.90;;;;;;5094884;28;19924;-69
2022/03/25 01:32:16;;;;;;;;;;;1.00;99.90;;;;;;5106791;28;20570;-69
2022/03/25 01:34:43;;;;;;;;;;;0.90;99.90;;;;;;5099648;28;20018;-69
2022/03/25 01:37:11;;;;;;;;;;;1.00;99.90;;;;;;5095658;28;19947;-70
2022/03/25 01:39:38;;;;;;;;;;;0.90;99.90;;;;;;5105948;28;19983;-70
2022/03/25 01:42:05;;;;;;;;;;;0.90;99.90;;;;;;5100976;28;19932;-70
2022/03/25 01:44:32;;;;;;;;;;;0.90;99.90;;;;;;5108334;28;19924;-69
2022/03/25 01:46:59;;;;;;;;;;;1.00;99.90;;;;;;5103885;28;19978;-70
2022/03/25 01:49:29;;;;;;;;;;;1.10;99.90;;;;;;5106500;28;19931;-70
2022/03/25 01:52:00;;;;;;;;;;;1.00;99.90;;;;;;5091361;28;19924;-70
2022/03/25 01:54:28;;;;;;;;;;;0.90;99.90;;;;;;5105411;28;20014;-70
2022/03/25 01:57:00;;;;;;;;;;;0.90;99.90;;;;;;5106421;28;20477;-72
2022/03/25 01:59:30;;;;;;;;;;;0.80;99.90;;;;;;5098789;28;19985;-70
2022/03/25 02:01:59;;;;;;;;;;;0.70;99.90;;;;;;5091661;28;19928;-71
2022/03/25 02:04:26;;;;;;;;;;;0.60;99.90;;;;;;5090914;28;19931;-71
2022/03/25 02:06:53;;;;;;;;;;;0.60;99.90;;;;;;5098053;28;19924;-71
2022/03/25 02:09:20;;;;;;;;;;;0.60;99.90;;;;;;5090780;28;19928;-71
2022/03/25 02:11:47;;;;;;;;;;;0.60;99.90;;;;;;5090630;28;19924;-71
2022/03/25 02:14:13;;;;;;;;;;;0.60;99.90;;;;;;5090119;28;20047;-71
2022/03/25 02:16:47;;;;;;;;;;;0.50;99.90;;;;;;5073423;28;19925;-71
2022/03/25 02:19:18;;;;;;;;;;;0.60;99.90;;;;;;5091196;28;19924;-71
2022/03/25 02:21:45;;;;;;;;;;;0.60;99.90;;;;;;5091569;28;19924;-71
2022/03/25 02:24:18;;;;;;;;;;;0.70;99.90;;;;;;5090756;28;19970;-71
2022/03/25 02:26:47;;;;;;;;;;;0.70;99.90;;;;;;5090676;28;20362;-70
2022/03/25 02:29:17;;;;;;;;;;;0.60;99.90;;;;;;5100906;28;19959;-71
2022/03/25 02:31:44;;;;;;;;;;;0.60;99.90;;;;;;5090745;28;20015;-70
2022/03/25 02:34:11;;;;;;;;;;;0.50;99.90;;;;;;5098673;28;19924;-71
2022/03/25 02:36:39;;;;;;;;;;;0.40;99.90;;;;;;5092848;28;19967;-70
2022/03/25 02:39:06;;;;;;;;;;;0.30;99.90;;;;;;5103817;28;19980;-71
2022/03/25 02:41:33;;;;;;;;;;;0.40;99.90;;;;;;5099461;28;19923;-71
2022/03/25 02:44:00;;;;;;;;;;;0.40;99.90;;;;;;5097862;28;19928;-71
2022/03/25 02:46:27;;;;;;;;;;;0.30;99.90;;;;;;5098322;28;20037;-71
2022/03/25 02:48:54;;;;;;;;;;;0.20;99.90;;;;;;5108947;28;19924;-71
2022/03/25 02:51:20;;;;;;;;;;;0.30;99.90;;;;;;5099844;28;19937;-71
2022/03/25 02:53:47;;;;;;;;;;;0.30;99.90;;;;;;5107066;28;19928;-71
2022/03/25 02:56:14;;;;;;;;;;;0.20;99.90;;;;;;5096711;28;19930;-71
2022/03/25 02:58:41;;;;;;;;;;;0.20;99.90;;;;;;5100040;28;19930;-71
2022/03/25 03:01:07;;;;;;;;;;;0.10;99.90;;;;;;5104961;28;20389;-71
2022/03/25 03:03:34;;;;;;;;;;;-0.10;99.90;;;;;;5092494;28;19971;-70
2022/03/25 03:06:01;;;;;;;;;;;-0.20;99.90;;;;;;5107844;28;19924;-70
2022/03/25 03:08:28;;;;;;;;;;;-0.20;99.90;;;;;;5091452;28;19931;-71
2022/03/25 03:10:55;;;;;;;;;;;-0.30;99.90;;;;;;5093062;28;19927;-70
2022/03/25 03:13:23;;;;;;;;;;;-0.30;99.90;;;;;;5109437;28;20027;-70
2022/03/25 03:15:50;;;;;;;;;;;-0.20;99.90;;;;;;5107442;28;20293;-70
2022/03/25 03:18:20;;;;;;;;;;;-0.10;99.90;;;;;;5102871;28;19969;-71
2022/03/25 03:20:46;;;;;;;;;;;-0.10;99.90;;;;;;5084757;28;19943;-71
2022/03/25 03:23:13;;;;;;;;;;;0.00;99.90;;;;;;5096791;28;19994;-70
2022/03/25 03:25:40;;;;;;;;;;;0.10;99.90;;;;;;5077741;28;20394;-71
2022/03/25 03:28:07;;;;;;;;;;;0.20;99.90;;;;;;5094264;28;19924;-70
2022/03/25 03:30:34;;;;;;;;;;;0.30;99.90;;;;;;5100508;28;19924;-71
2022/03/25 03:33:04;;;;;;;;;;;0.30;99.90;;;;;;5109657;28;19942;-71
2022/03/25 03:35:40;;;;;;;;;;;0.40;99.90;;;;;;5101083;28;19946;-71
2022/03/25 03:38:09;;;;;;;;;;;0.50;99.90;;;;;;5095816;28;20027;-71
2022/03/25 03:40:37;;;;;;;;;;;0.60;99.90;;;;;;5078417;28;19974;-71
2022/03/25 03:43:04;;;;;;;;;;;0.50;99.90;;;;;;5098134;28;20006;-71
2022/03/25 03:45:34;;;;;;;;;;;0.50;99.90;;;;;;5104615;28;19950;-71
2022/03/25 03:48:01;;;;;;;;;;;0.50;99.90;;;;;;5093373;28;20011;-71
2022/03/25 03:50:27;;;;;;;;;;;0.40;99.90;;;;;;5093979;28;20311;-71
2022/03/25 03:52:54;;;;;;;;;;;0.40;99.90;;;;;;5106600;28;20011;-70
2022/03/25 03:55:21;;;;;;;;;;;0.30;99.90;;;;;;5102027;28;19924;-70
2022/03/25 03:57:47;;;;;;;;;;;0.20;99.90;;;;;;5093447;28;20015;-70
2022/03/25 04:00:14;;;;;;;;;;;0.10;99.90;;;;;;5076003;28;20014;-70
2022/03/25 04:02:42;;;;;;;;;;;0.00;99.90;;;;;;5107440;28;20023;-70
2022/03/25 04:05:10;;;;;;;;;;;-0.10;99.90;;;;;;5076432;28;19924;-70
2022/03/25 04:07:44;;;;;;;;;;;-0.10;99.90;;;;;;5100022;28;19947;-70
2022/03/25 04:10:12;;;;;;;;;;;0.00;99.90;;;;;;5102554;28;20012;-70
2022/03/25 04:12:39;;;;;;;;;;;0.10;99.90;;;;;;5109879;28;20050;-70
2022/03/25 04:15:09;;;;;;;;;;;0.20;99.90;;;;;;5112981;28;20298;-70
2022/03/25 04:17:45;;;;;;;;;;;0.20;99.90;;;;;;5110017;28;19981;-70
2022/03/25 04:20:14;;;;;;;;;;;0.10;99.90;;;;;;5112087;28;19977;-70
2022/03/25 04:22:43;;;;;;;;;;;0.00;99.90;;;;;;5102678;28;19924;-70
2022/03/25 04:25:10;;;;;;;;;;;0.00;99.90;;;;;;5091248;28;19924;-69
2022/03/25 04:27:50;;;;;;;;;;;-0.10;99.90;;;;;;5091870;28;19924;-69
2022/03/25 04:30:28;;;;;;;;;;;-0.20;99.90;;;;;;5092678;28;19951;-70
2022/03/25 04:32:57;;;;;;;;;;;-0.20;99.90;;;;;;5101263;28;19970;-70
2022/03/25 04:35:24;;;;;;;;;;;-0.30;99.90;;;;;;5092203;28;19928;-69
2022/03/25 04:37:51;;;;;;;;;;;-0.40;99.90;;;;;;5103709;28;19978;-70
2022/03/25 04:40:19;;;;;;;;;;;-0.50;99.90;;;;;;5110013;28;19924;-70
2022/03/25 04:42:50;;;;;;;;;;;-0.50;99.90;;;;;;5100690;28;20018;-70
2022/03/25 04:45:18;;;;;;;;;;;-0.60;99.90;;;;;;5107798;28;20429;-70
2022/03/25 04:47:45;;;;;;;;;;;-0.60;99.90;;;;;;5092525;28;19930;-70
2022/03/25 04:50:11;;;;;;;;;;;-0.70;99.90;;;;;;5097891;28;19923;-70
2022/03/25 04:52:38;;;;;;;;;;;-0.80;99.90;;;;;;5109592;28;20002;-70
2022/03/25 04:55:17;;;;;;;;;;;-0.80;99.90;;;;;;5102050;28;19970;-70
2022/03/25 04:57:45;;;;;;;;;;;-0.80;99.90;;;;;;5097382;28;20359;-70
2022/03/25 05:00:12;;;;;;;;;;;-0.90;99.90;;;;;;5075716;28;19928;-70
2022/03/25 05:02:39;;;;;;;;;;;-0.80;99.90;;;;;;5094376;28;20407;-70
2022/03/25 05:05:06;;;;;;;;;;;-0.80;99.90;;;;;;5104152;28;19930;-70
2022/03/25 05:07:39;;;;;;;;;;;-0.80;99.90;;;;;;5109112;28;20310;-70
2022/03/25 05:10:06;;;;;;;;;;;-0.80;99.90;;;;;;5110958;28;19936;-70
2022/03/25 05:12:33;;;;;;;;;;;-0.80;99.90;;;;;;5109432;28;19923;-70
2022/03/25 05:15:00;;;;;;;;;;;-0.90;99.90;;;;;;5091490;28;20374;-70
2022/03/25 05:17:26;;;;;;;;;;;-0.90;99.90;;;;;;5081492;28;19975;-70
2022/03/25 05:19:54;;;;;;;;;;;-0.90;99.90;;;;;;5101565;28;19969;-69
2022/03/25 05:22:20;;;;;;;;;;;-0.90;99.90;;;;;;5097834;28;20275;-69
2022/03/25 05:24:47;;;;;;;;;;;-0.90;99.90;;;;;;5092362;28;19925;-69
2022/03/25 05:27:14;;;;;;;;;;;-0.90;99.90;;;;;;5092025;28;19924;-69
2022/03/25 05:29:40;;;;;;;;;;;-0.80;99.90;;;;;;5106957;28;20260;-69
2022/03/25 05:32:07;;;;;;;;;;;-0.90;99.90;;;;;;5099236;28;19971;-69
2022/03/25 05:34:34;;;;;;;;;;;-0.90;99.90;;;;;;5092828;28;19930;-69
2022/03/25 05:37:01;;;;;;;;;;;-0.90;99.90;;;;;;5091610;28;20015;-69
2022/03/25 05:39:28;;;;;;;;;;;-0.80;99.90;;;;;;5096272;28;19923;-69
2022/03/25 05:41:55;;;;;;;;;;;-0.70;99.90;;;;;;5103090;28;19924;-70
2022/03/25 05:44:24;;;;;;;;;;;-0.60;99.90;;;;;;5104353;28;20491;-69
2022/03/25 05:46:51;;;;;;;;;;;-0.40;99.90;;;;;;5108197;28;20341;-69
2022/03/25 05:49:17;;;;;;;;;;;-0.20;99.90;;;;;;5110629;28;19930;-70
2022/03/25 05:51:44;;;;;;;;;;;-0.10;99.90;;;;;;5089479;28;20010;-69
2022/03/25 05:54:11;;;;;;;;;;;0.00;99.90;;;;;;5110006;28;19967;-69
2022/03/25 05:56:39;;;;;;;;;;;0.00;99.90;;;;;;5110494;28;19930;-69
2022/03/25 05:59:05;;;;;;;;;;;0.10;99.90;;;;;;5110410;28;20405;-69
2022/03/25 06:01:32;;;;;;;;;;;0.30;99.90;;;;;;5094097;28;19924;-69
2022/03/25 06:03:59;;;;;;;;;;;0.40;99.90;;;;;;5110427;28;20323;-69
2022/03/25 06:06:26;;;;;;;;;;;0.50;99.90;;;;;;5094284;28;20011;-69
2022/03/25 06:08:55;;;;;;;;;;;0.60;99.90;;;;;;5099558;28;19931;-70
2022/03/25 06:11:22;;;;;;;;;;;0.80;99.90;;;;;;5096875;28;19959;-69
2022/03/25 06:13:49;;;;;;;;;;;1.00;99.90;;;;;;5107909;28;19928;-70
2022/03/25 06:16:17;;;;;;;;;;;1.20;99.90;;;;;;5106009;28;20311;-71
2022/03/25 06:18:44;;;;;;;;;;;1.40;99.90;;;;;;5105119;28;20026;-70
2022/03/25 06:21:10;;;;;;;;;;;1.60;99.90;;;;;;5075761;28;20003;-70
2022/03/25 06:23:37;;;;;;;;;;;1.80;99.90;;;;;;5094261;28;19928;-70
2022/03/25 06:26:05;;;;;;;;;;;2.40;99.90;;;;;;5101503;28;19984;-70
2022/03/25 06:28:32;;;;;;;;;;;3.40;99.90;;;;;;5094647;28;19954;-70
2022/03/25 06:30:59;;;;;;;;;;;4.70;99.90;;;;;;5082866;28;20501;-70
2022/03/25 06:33:25;;;;;;;;;;;5.60;99.90;;;;;;5110297;28;20009;-70
2022/03/25 06:35:52;;;;;;;;;;;6.70;99.90;;;;;;5108065;28;19930;-71
2022/03/25 06:38:19;;;;;;;;;;;7.70;99.90;;;;;;5090279;28;19931;-71
2022/03/25 06:40:51;;;;;;;;;;;8.40;99.90;;;;;;5106063;28;20489;-71
2022/03/25 06:43:17;;;;;;;;;;;9.10;99.90;;;;;;5094153;28;20370;-69
2022/03/25 06:45:44;;;;;;;;;;;9.80;99.90;;;;;;5110181;28;20374;-69
2022/03/25 06:48:11;;;;;;;;;;;10.50;99.90;;;;;;5109448;28;20006;-70
2022/03/25 06:50:38;;;;;;;;;;;11.10;99.90;;;;;;5090410;28;20538;-70
2022/03/25 06:53:05;;;;;;;;;;;11.50;99.90;;;;;;5097638;28;19967;-70
2022/03/25 06:55:32;;;;;;;;;;;11.70;99.90;;;;;;5090899;28;19924;-70
2022/03/25 06:57:59;;;;;;;;;;;12.00;99.90;;;;;;5107093;28;19924;-70
2022/03/25 07:00:27;;;;;;;;;;;12.40;99.90;;;;;;5113022;28;20007;-71
2022/03/25 07:02:54;;;;;;;;;;;12.60;99.90;;;;;;5103567;28;19924;-71
2022/03/25 07:05:21;;;;;;;;;;;12.90;99.90;;;;;;5101736;28;19939;-71
2022/03/25 07:07:48;;;;;;;;;;;13.40;99.90;;;;;;5094486;28;20405;-71
2022/03/25 07:10:15;;;;;;;;;;;13.70;99.90;;;;;;5094683;28;20417;-71
2022/03/25 07:12:43;;;;;;;;;;;13.80;99.90;;;;;;5094569;28;19928;-71
2022/03/25 07:15:10;;;;;;;;;;;13.70;99.70;;;;;;5098419;28;20002;-71
2022/03/25 07:17:37;;;;;;;;;;;13.90;98.90;;;;;;5081376;28;19950;-71
2022/03/25 07:20:05;;;;;;;;;;;13.80;98.80;;;;;;5094188;28;19928;-71
2022/03/25 07:22:31;;;;;;;;;;;13.80;99.00;;;;;;5094827;28;20019;-71
2022/03/25 07:24:58;;;;;;;;;;;13.90;99.00;;;;;;5110944;28;19947;-71
2022/03/25 07:27:25;;;;;;;;;;;14.00;98.10;;;;;;5095554;28;19930;-71
2022/03/25 07:29:54;;;;;;;;;;;14.00;97.60;;;;;;5111514;28;19924;-71
2022/03/25 07:32:24;;;;;;;;;;;13.60;97.80;;;;;;5111619;28;19985;-71
2022/03/25 07:34:51;;;;;;;;;;;13.60;98.20;;;;;;5098558;28;20389;-71
2022/03/25 07:37:18;;;;;;;;;;;14.00;98.10;;;;;;5102038;28;20006;-71
2022/03/25 07:39:45;;;;;;;;;;;14.10;97.80;;;;;;5113957;28;19924;-71
2022/03/25 07:42:18;;;;;;;;;;;14.00;97.10;;;;;;5111680;28;19934;-71
2022/03/25 07:44:44;;;;;;;;;;;13.50;97.10;;;;;;5092092;28;19974;-71
2022/03/25 07:47:12;;;;;;;;;;;13.50;97.70;;;;;;5090969;28;19965;-70
2022/03/25 07:49:39;;;;;;;;;;;13.30;97.30;;;;;;5092937;28;19928;-71
2022/03/25 07:52:07;;;;;;;;;;;13.30;97.90;;;;;;5101576;28;19959;-71
2022/03/25 07:54:34;;;;;;;;;;;13.80;97.70;;;;;;5085333;28;19923;-71
2022/03/25 07:57:01;;;;;;;;;;;14.20;97.10;;;;;;5105729;28;19931;-70
2022/03/25 07:59:28;;;;;;;;;;;14.30;96.60;;;;;;5094904;28;19924;-71
2022/03/25 08:01:56;;;;;;;;;;;14.50;96.40;;;;;;5106477;28;19955;-71
2022/03/25 08:04:24;;;;;;;;;;;14.30;96.20;;;;;;5104477;28;19924;-71
2022/03/25 08:06:51;;;;;;;;;;;14.20;96.40;;;;;;5096344;28;20007;-70
2022/03/25 08:09:17;;;;;;;;;;;14.10;96.60;;;;;;5101780;28;19928;-71
2022/03/25 08:11:53;;;;;;;;;;;14.40;96.40;;;;;;5107507;28;19966;-71
2022/03/25 08:14:22;;;;;;;;;;;14.30;96.20;;;;;;5090286;28;19969;-71
2022/03/25 08:16:49;;;;;;;;;;;14.50;96.60;;;;;;5101930;28;20022;-69
2022/03/25 08:19:15;;;;;;;;;;;14.80;96.00;;;;;;5099345;28;19967;-70
2022/03/25 08:21:42;;;;;;;;;;;15.20;96.00;;;;;;5101346;28;19927;-70
2022/03/25 08:29:42;;;;;;;;;;;16.40;95.00;;;;;;5094475;28;20398;-70
2022/03/25 08:32:09;;;;;;;;;;;16.50;95.40;;;;;;5111931;28;20023;-70
2022/03/25 08:34:38;;;;;;;;;;;16.60;94.40;;;;;;5109835;28;19981;-70
2022/03/25 08:37:05;;;;;;;;;;;15.90;94.20;;;;;;5100839;28;20011;-70
2022/03/25 08:39:31;;;;;;;;;;;15.90;95.20;;;;;;5111337;28;19939;-70
2022/03/25 08:41:58;;;;;;;;;;;16.40;95.40;;;;;;5101833;28;19969;-70
2022/03/25 08:44:25;;;;;;;;;;;16.90;94.70;;;;;;5097374;28;19930;-70
2022/03/25 08:46:51;;;;;;;;;;;17.00;93.80;;;;;;5111320;28;19999;-70
2022/03/25 08:49:18;;;;;;;;;;;17.20;94.30;;;;;;5098514;28;19969;-70
2022/03/25 08:51:45;;;;;;;;;;;16.80;93.60;;;;;;5100379;28;20006;-70
2022/03/25 08:54:14;;;;;;;;;;;16.60;93.60;;;;;;5093554;28;19971;-70
2022/03/25 08:56:40;;;;;;;;;;;16.60;93.70;;;;;;5093271;28;19932;-70
2022/03/25 08:59:10;;;;;;;;;;;16.90;93.80;;;;;;5106094;28;19928;-70
2022/03/25 09:01:41;;;;;;;;;;;17.50;93.90;;;;;;5103209;28;19941;-70
2022/03/25 09:04:08;;;;;;;;;;;17.80;93.30;;;;;;5109294;28;20357;-70
2022/03/25 09:06:35;;;;;;;;;;;17.80;92.40;;;;;;5093793;28;20003;-69
2022/03/25 09:09:05;;;;;;;;;;;17.60;93.50;;;;;;5092569;28;19924;-70
2022/03/25 09:11:31;;;;;;;;;;;17.70;92.60;;;;;;5100052;28;19994;-69
2022/03/25 09:13:58;;;;;;;;;;;17.50;92.50;;;;;;5093323;28;19999;-69
2022/03/25 09:16:25;;;;;;;;;;;17.50;92.30;;;;;;5111025;28;20011;-69
2022/03/25 09:18:52;;;;;;;;;;;17.30;92.40;;;;;;5110661;28;20268;-69
2022/03/25 09:21:19;;;;;;;;;;;17.20;92.40;;;;;;5103483;28;19924;-70
2022/03/25 09:23:51;;;;;;;;;;;17.70;92.30;;;;;;5106883;28;20348;-70
2022/03/25 09:26:18;;;;;;;;;;;18.30;92.20;;;;;;5091910;28;19924;-70
2022/03/25 09:28:48;;;;;;;;;;;18.50;91.90;;;;;;5091133;28;20014;-70
2022/03/25 09:31:15;;;;;;;;;;;18.70;91.30;;;;;;5091683;28;20011;-70
2022/03/25 09:36:47;;;;;;;;;;;19.40;90.20;;;;;;5098460;28;19930;-70
2022/03/25 09:39:14;;;;;;;;;;;19.70;90.30;;;;;;5099444;28;19959;-70
2022/03/25 09:41:40;;;;;;;;;;;19.80;90.20;;;;;;5091645;28;19955;-70
2022/03/25 09:44:08;;;;;;;;;;;20.40;89.70;;;;;;5099164;28;19928;-70
2022/03/25 09:46:41;;;;;;;;;;;20.40;89.40;;;;;;5099278;28;19923;-70
2022/03/25 09:49:14;;;;;;;;;;;20.80;87.80;;;;;;5109443;28;19924;-70
2022/03/25 09:51:41;;;;;;;;;;;20.90;88.20;;;;;;5109335;28;20268;-70
2022/03/25 09:54:09;;;;;;;;;;;21.10;86.80;;;;;;5108380;28;20390;-70
2022/03/25 09:56:35;;;;;;;;;;;21.10;87.50;;;;;;5105193;28;19924;-70
2022/03/25 09:59:02;;;;;;;;;;;21.50;86.20;;;;;;5099955;28;19930;-70
2022/03/25 10:01:29;;;;;;;;;;;21.40;85.50;;;;;;5110537;28;19930;-70
2022/03/25 10:03:56;;;;;;;;;;;21.40;84.40;;;;;;5092917;28;19980;-70
2022/03/25 10:06:24;;;;;;;;;;;21.20;84.80;;;;;;5105648;28;19931;-70
2022/03/25 10:08:58;;;;;;;;;;;21.30;84.40;;;;;;5082535;28;20499;-70
2022/03/25 10:11:32;;;;;;;;;;;21.30;84.50;;;;;;5109201;28;19924;-70
2022/03/25 10:14:15;;;;;;;;;;;21.70;83.80;;;;;;5090691;28;20011;-70
2022/03/25 10:16:49;;;;;;;;;;;21.80;84.40;;;;;;5091002;28;19924;-70
2022/03/25 10:19:17;;;;;;;;;;;22.20;82.90;;;;;;5081545;28;19928;-69
2022/03/25 10:22:02;;;;;;;;;;;22.00;80.00;;;;;;5097795;28;19927;-70
2022/03/25 10:24:39;;;;;;;;;;;21.50;80.40;;;;;;5102988;28;19924;-69
2022/03/25 10:27:12;;;;;;;;;;;21.00;82.30;;;;;;5107023;28;19931;-69
2022/03/25 10:29:39;;;;;;;;;;;21.20;82.40;;;;;;5105026;28;20495;-69
2022/03/25 10:32:16;;;;;;;;;;;21.00;81.80;;;;;;5073130;28;20026;-69
2022/03/25 10:34:43;;;;;;;;;;;21.40;81.70;;;;;;5102547;28;20447;-68
2022/03/25 10:37:14;;;;;;;;;;;21.90;81.70;;;;;;5091780;28;19924;-68
2022/03/25 10:39:51;;;;;;;;;;;22.30;79.60;;;;;;5106679;28;20392;-68
2022/03/25 10:42:18;;;;;;;;;;;22.50;80.90;;;;;;5105863;28;19974;-68
2022/03/25 10:44:44;;;;;;;;;;;22.60;79.70;;;;;;5096641;28;20419;-69
2022/03/25 10:47:17;;;;;;;;;;;22.70;79.90;;;;;;5107884;28;19978;-69
2022/03/25 10:49:46;;;;;;;;;;;22.80;80.80;;;;;;5094319;28;19977;-69
2022/03/25 10:52:26;;;;;;;;;;;23.20;80.70;;;;;;5112494;28;19969;-69
2022/03/25 10:55:28;;;;;;;;;;;23.40;79.50;;;;;;5107005;28;19943;-69
2022/03/25 10:57:58;;;;;;;;;;;23.50;78.90;;;;;;5044904;28;20058;-69
2022/03/25 11:00:26;;;;;;;;;;;24.00;78.80;;;;;;5050564;28;19925;-69
2022/03/25 11:02:53;;;;;;;;;;;24.30;78.60;;;;;;5051349;28;19924;-69
2022/03/25 11:05:20;;;;;;;;;;;24.40;78.60;;;;;;5050584;28;20023;-69
2022/03/25 11:07:48;;;;;;;;;;;24.40;77.40;;;;;;5042345;28;20019;-69
2022/03/25 11:10:17;;;;;;;;;;;23.20;76.90;;;;;;5050186;28;20418;-69
2022/03/25 11:12:45;;;;;;;;;;;23.10;78.00;;;;;;5050205;28;19931;-69
2022/03/25 11:15:12;;;;;;;;;;;23.10;78.70;;;;;;5057418;28;20106;-69
2022/03/25 11:17:42;;;;;;;;;;;24.00;77.80;;;;;;5037036;28;19952;-69
2022/03/25 11:20:10;;;;;;;;;;;23.90;77.30;;;;;;5055530;28;19924;-69
2022/03/25 11:22:41;;;;;;;;;;;23.60;77.10;;;;;;5050853;28;20015;-69
2022/03/25 11:25:12;;;;;;;;;;;23.40;77.00;;;;;;5050481;28;19931;-69
2022/03/25 11:27:40;;;;;;;;;;;23.10;76.50;;;;;;5049618;28;19972;-69
2022/03/25 11:30:09;;;;;;;;;;;23.10;77.00;;;;;;5050578;28;19929;-69
2022/03/25 11:32:55;;;;;;;;;;;22.80;76.90;;;;;;5050488;28;19929;-69
2022/03/25 11:35:21;;;;;;;;;;;22.50;76.90;;;;;;5088707;28;19924;-68
2022/03/25 11:38:08;;;;;;;;;;;22.40;76.90;;;;;;5093954;28;19928;-69
2022/03/25 11:40:39;;;;;;;;;;;22.20;77.00;;;;;;5101341;28;19931;-69
2022/03/25 11:43:13;;;;;;;;;;;22.30;77.80;;;;;;5096363;28;20390;-69
2022/03/25 11:45:40;;;;;;;;;;;22.30;78.10;;;;;;5108158;28;19958;-68
2022/03/25 11:48:10;;;;;;;;;;;22.20;77.10;;;;;;5107460;28;20014;-68
2022/03/25 11:50:41;;;;;;;;;;;22.70;78.30;;;;;;5093338;28;20014;-68
2022/03/25 11:53:10;;;;;;;;;;;23.50;79.00;;;;;;5107236;28;20702;-68
2022/03/25 11:56:00;;;;;;;;;;;23.40;76.50;;;;;;5112607;28;19930;-69
2022/03/25 11:58:31;;;;;;;;;;;23.50;75.80;;;;;;5101088;28;19986;-69
2022/03/25 12:01:12;;;;;;;;;;;23.40;77.00;;;;;;5095639;28;20249;-69
2022/03/25 12:03:41;;;;;;;;;;;23.00;76.90;;;;;;5105029;28;20052;-69
2022/03/25 12:06:08;;;;;;;;;;;22.80;76.60;;;;;;5100769;28;19950;-69
2022/03/25 12:08:35;;;;;;;;;;;23.30;78.50;;;;;;5101318;28;19963;-68
2022/03/25 12:11:04;;;;;;;;;;;23.10;76.80;;;;;;5076541;28;19930;-69
2022/03/25 12:13:50;;;;;;;;;;;22.60;76.70;;;;;;5087010;28;19930;-69
2022/03/25 12:16:35;;;;;;;;;;;22.40;77.40;;;;;;5092442;28;19971;-68
2022/03/25 12:19:02;;;;;;;;;;;22.40;77.50;;;;;;5092472;28;20368;-69
2022/03/25 12:21:40;;;;;;;;;;;22.60;78.20;;;;;;5096854;28;19928;-68
2022/03/25 12:24:17;;;;;;;;;;;22.30;78.00;;;;;;5101212;28;20011;-68
2022/03/25 12:26:44;;;;;;;;;;;21.90;76.90;;;;;;5093631;28;19963;-68
2022/03/25 12:29:11;;;;;;;;;;;21.70;77.10;;;;;;5093434;28;19924;-68
2022/03/25 12:31:38;;;;;;;;;;;21.70;78.10;;;;;;5101626;28;20015;-68
2022/03/25 12:34:12;;;;;;;;;;;22.10;79.50;;;;;;5102823;28;20347;-68
2022/03/25 12:36:48;;;;;;;;;;;22.80;79.30;;;;;;5112808;28;19928;-68
2022/03/25 12:39:15;;;;;;;;;;;23.10;77.00;;;;;;5098612;28;20002;-68
2022/03/25 12:41:47;;;;;;;;;;;22.70;77.00;;;;;;5093215;28;19928;-68
2022/03/25 12:44:28;;;;;;;;;;;22.40;77.10;;;;;;5103699;28;19976;-68
2022/03/25 12:46:58;;;;;;;;;;;22.10;76.80;;;;;;5109212;28;20251;-68
2022/03/25 12:49:29;;;;;;;;;;;22.30;76.10;;;;;;5092704;28;20293;-68
2022/03/25 12:52:01;;;;;;;;;;;22.40;76.80;;;;;;5100428;28;19923;-68
2022/03/25 12:54:31;;;;;;;;;;;22.30;76.70;;;;;;5092821;28;20081;-68
2022/03/25 12:56:59;;;;;;;;;;;21.80;77.60;;;;;;5090502;28;19924;-69
2022/03/25 12:59:53;;;;;;;;;;;21.90;77.40;;;;;;5077924;28;19924;-68
2022/03/25 13:02:27;;;;;;;;;;;22.00;77.20;;;;;;5093735;28;19960;-68
2022/03/25 13:05:03;;;;;;;;;;;22.50;75.60;;;;;;5098001;28;20473;-69
2022/03/25 13:07:29;;;;;;;;;;;22.80;75.20;;;;;;5091802;28;19924;-69
2022/03/25 13:09:56;;;;;;;;;;;23.20;76.00;;;;;;5095452;28;19955;-69
2022/03/25 13:12:27;;;;;;;;;;;23.10;75.40;;;;;;5102729;28;20023;-69
2022/03/25 13:14:53;;;;;;;;;;;23.10;75.70;;;;;;5105376;28;19924;-68
2022/03/25 13:17:32;;;;;;;;;;;23.90;74.50;;;;;;5100437;28;19938;-69
2022/03/25 13:19:59;;;;;;;;;;;24.30;75.30;;;;;;5082012;28;19932;-69
2022/03/25 13:22:26;;;;;;;;;;;25.30;74.40;;;;;;5093758;28;19924;-69
2022/03/25 13:24:56;;;;;;;;;;;25.70;73.00;;;;;;5091044;28;19924;-69
2022/03/25 13:27:23;;;;;;;;;;;25.00;72.30;;;;;;5091282;28;19932;-69
2022/03/25 13:29:51;;;;;;;;;;;24.60;74.40;;;;;;5098457;28;19928;-70
2022/03/25 13:32:28;;;;;;;;;;;24.60;73.20;;;;;;5089397;28;19932;-69
2022/03/25 13:35:00;;;;;;;;;;;24.70;72.00;;;;;;5096295;28;19924;-69
2022/03/25 13:37:27;;;;;;;;;;;24.90;71.70;;;;;;5099944;28;20363;-68
2022/03/25 13:39:54;;;;;;;;;;;25.10;71.60;;;;;;5110326;28;19924;-69
2022/03/25 13:42:20;;;;;;;;;;;25.30;72.40;;;;;;5093668;28;19934;-69
2022/03/25 13:44:47;;;;;;;;;;;25.50;71.40;;;;;;5079767;28;19939;-69
2022/03/25 13:47:14;;;;;;;;;;;25.50;72.00;;;;;;5107736;28;20018;-68
2022/03/25 13:49:43;;;;;;;;;;;25.10;71.50;;;;;;5075953;28;19950;-69
2022/03/25 13:52:10;;;;;;;;;;;25.30;72.00;;;;;;5092058;28;19928;-69
2022/03/25 13:54:40;;;;;;;;;;;26.00;72.10;;;;;;5091791;28;19924;-67
2022/03/25 13:57:15;;;;;;;;;;;26.10;70.30;;;;;;5099034;28;19924;-70
2022/03/25 13:59:43;;;;;;;;;;;26.30;70.40;;;;;;5105741;28;20022;-69
2022/03/25 14:02:10;;;;;;;;;;;;;;;;;;5091793;28;19928;-69
2022/03/25 14:04:41;;;;;;;;;;;27.40;68.70;;;;;;5091573;28;19924;-69
2022/03/25 14:07:15;;;;;;;;;;;27.20;68.90;;;;;;5091705;28;19970;-69
2022/03/25 14:09:42;;;;;;;;;;;26.40;69.30;;;;;;5090288;28;20536;-69
2022/03/25 14:12:22;;;;;;;;;;;26.10;69.60;;;;;;5092337;28;19955;-69
2022/03/25 14:14:58;;;;;;;;;;;25.40;70.00;;;;;;5101485;28;19970;-69
2022/03/25 14:17:38;;;;;;;;;;;25.60;70.00;;;;;;5090271;28;20388;-70
2022/03/25 14:20:12;;;;;;;;;;;26.40;68.70;;;;;;5099329;28;19927;-69
2022/03/25 14:22:41;;;;;;;;;;;26.00;68.20;;;;;;5091599;28;19930;-69
2022/03/25 14:25:08;;;;;;;;;;;25.90;68.70;;;;;;5091268;28;19924;-69
2022/03/25 14:27:35;;;;;;;;;;;26.50;67.80;;;;;;5098622;28;19966;-69
2022/03/25 14:30:02;;;;;;;;;;;27.00;67.40;;;;;;5083058;28;20026;-67
2022/03/25 14:32:29;;;;;;;;;;;27.60;65.50;;;;;;5092369;28;19939;-67
2022/03/25 14:34:55;;;;;;;;;;;28.20;66.50;;;;;;5101940;28;20039;-68
2022/03/25 14:37:23;;;;;;;;;;;28.30;65.90;;;;;;5090862;28;19924;-68
2022/03/25 14:39:51;;;;;;;;;;;27.70;67.00;;;;;;5090855;28;19963;-68